Time;durP1;ratioP1;P1;durP2;ratioP2;P2;SDS_P1;SDS_P2;PMS_P1;PMS_P2;Temp;Humidity;BMP_temperature;BMP_pressure;BME280_temperature;BME280_humidity;BME280_pressure;Samples;Min_cycle;Max_cycle;Signal;HPM_P1;HPM_P2
2022/03/27 00:02:22;;;;;;;31.90;12.00;;;;;;;8.61;100.00;103126.50;5266603;28;20107;-77
2022/03/27 00:04:52;;;;;;;23.00;11.98;;;;;;;8.57;100.00;103128.50;5265616;28;20024;-77
2022/03/27 00:07:22;;;;;;;25.92;12.50;;;;;;;8.50;100.00;103133.41;5266695;28;20024;-77
2022/03/27 00:09:53;;;;;;;23.27;11.93;;;;;;;8.48;100.00;103137.13;5266303;28;20020;-78
2022/03/27 00:12:23;;;;;;;26.58;12.60;;;;;;;8.45;100.00;103129.31;5266703;28;20055;-77
2022/03/27 00:14:54;;;;;;;28.13;12.35;;;;;;;8.44;100.00;103131.13;5258984;28;20021;-77
2022/03/27 00:17:24;;;;;;;29.90;13.60;;;;;;;8.39;100.00;103133.22;5266669;28;20031;-77
2022/03/27 00:19:56;;;;;;;26.65;12.52;;;;;;;8.38;100.00;103131.47;5265701;28;20022;-77
2022/03/27 00:22:27;;;;;;;25.80;12.32;;;;;;;8.35;100.00;103136.16;5266197;28;20086;-77
2022/03/27 00:24:58;;;;;;;27.95;12.35;;;;;;;8.33;100.00;103128.19;5265855;28;20024;-77
2022/03/27 00:27:28;;;;;;;30.23;13.90;;;;;;;8.29;100.00;103130.22;5266352;28;20034;-77
2022/03/27 00:29:59;;;;;;;30.95;11.40;;;;;;;8.26;100.00;103122.38;5266075;28;20031;-77
2022/03/27 00:32:29;;;;;;;22.55;11.40;;;;;;;8.23;100.00;103130.63;5266045;28;20422;-77
2022/03/27 00:35:00;;;;;;;31.35;13.25;;;;;;;8.21;100.00;103128.97;5266150;28;20103;-77
2022/03/27 00:37:33;;;;;;;25.77;12.02;;;;;;;8.18;100.00;103131.84;5266334;28;20028;-77
2022/03/27 00:40:04;;;;;;;29.42;12.40;;;;;;;8.16;100.00;103128.41;5237606;28;20044;-77
2022/03/27 00:42:35;;;;;;;22.25;10.65;;;;;;;8.13;100.00;103136.59;5263268;28;20032;-77
2022/03/27 00:45:06;;;;;;;28.50;12.30;;;;;;;8.09;100.00;103140.44;5268272;28;20054;-77
2022/03/27 00:47:37;;;;;;;23.52;11.05;;;;;;;8.04;100.00;103136.25;5272729;28;20046;-77
2022/03/27 00:50:08;;;;;;;26.25;12.82;;;;;;;8.02;100.00;103130.09;5254815;28;20034;-77
2022/03/27 00:52:39;;;;;;;24.92;11.15;;;;;;;8.00;100.00;103131.16;5272415;28;20111;-77
2022/03/27 00:55:09;;;;;;;27.80;12.15;;;;;;;7.95;100.00;103134.13;5254208;28;20028;-77
2022/03/27 00:57:40;;;;;;;25.20;12.05;;;;;;;7.94;100.00;103134.22;5271719;28;20394;-77
2022/03/27 01:00:35;;;;;;;29.83;13.07;;;;;;;7.94;100.00;103127.06;5271079;28;20099;-78
2022/03/27 01:03:06;;;;;;;25.35;12.02;;;;;;;7.92;100.00;103128.94;5255216;28;20106;-77
2022/03/27 01:05:39;;;;;;;27.08;11.65;;;;;;;7.88;100.00;103127.44;5254696;28;20275;-78
2022/03/27 01:08:11;;;;;;;26.48;11.88;;;;;;;7.87;100.00;103127.50;5272859;28;20024;-78
2022/03/27 01:10:43;;;;;;;27.23;12.52;;;;;;;7.85;100.00;103126.75;5254219;28;20035;-78
2022/03/27 01:13:17;;;;;;;25.17;12.02;;;;;;;7.82;100.00;103126.94;5254691;28;20023;-78
2022/03/27 01:16:10;;;;;;;27.02;12.15;;;;;;;7.81;100.00;103119.88;5264283;28;20036;-78
2022/03/27 01:18:41;;;;;;;30.85;12.32;;;;;;;7.82;100.00;103121.59;5258623;28;20107;-78
2022/03/27 01:21:13;;;;;;;22.13;10.77;;;;;;;7.81;100.00;103125.22;5276116;28;20020;-78
2022/03/27 01:23:44;;;;;;;27.90;11.70;;;;;;;7.82;100.00;103121.59;5276521;28;20020;-78
2022/03/27 01:26:15;;;;;;;24.13;11.77;;;;;;;7.81;100.00;103115.38;5258142;28;20509;-78
2022/03/27 01:28:45;;;;;;;22.52;11.43;;;;;;;7.77;100.00;103120.03;5275885;28;20012;-78
2022/03/27 01:31:17;;;;;;;24.85;11.35;;;;;;;7.76;100.00;103115.66;5279056;28;20047;-77
2022/03/27 01:33:48;;;;;;;20.77;10.98;;;;;;;7.74;100.00;103114.06;5259132;28;20050;-77
2022/03/27 01:36:22;;;;;;;28.58;12.07;;;;;;;7.71;100.00;103115.09;5276378;28;20016;-78
2022/03/27 01:38:55;;;;;;;28.17;10.98;;;;;;;7.67;100.00;103113.53;5258446;28;20026;-78
2022/03/27 01:41:26;;;;;;;23.52;11.70;;;;;;;7.67;100.00;103115.34;5264598;28;20036;-78
2022/03/27 01:43:59;;;;;;;33.20;11.88;;;;;;;7.64;100.00;103107.53;5277050;28;20031;-78
2022/03/27 01:46:32;;;;;;;22.67;11.23;;;;;;;7.59;100.00;103106.97;5277089;28;20039;-78
2022/03/27 01:49:04;;;;;;;25.75;12.00;;;;;;;7.56;100.00;103104.47;5258948;28;20012;-78
2022/03/27 01:51:36;;;;;;;26.10;11.70;;;;;;;7.51;100.00;103104.72;5258700;28;20024;-78
2022/03/27 01:54:07;;;;;;;25.77;11.45;;;;;;;7.48;100.00;103100.44;5277241;28;20048;-78
2022/03/27 01:56:39;;;;;;;27.80;11.98;;;;;;;7.43;100.00;103096.31;5275105;28;20016;-78
2022/03/27 01:59:10;;;;;;;24.35;11.48;;;;;;;7.41;100.00;103091.06;5270473;28;20027;-78
2022/03/27 02:01:40;;;;;;;26.73;11.15;;;;;;;7.40;100.00;103091.16;5269134;28;20476;-78
2022/03/27 02:04:13;;;;;;;27.13;13.07;;;;;;;7.40;100.00;103099.16;5268387;28;20031;-77
2022/03/27 02:06:44;;;;;;;23.33;11.05;;;;;;;7.35;100.00;103094.09;5250679;28;20024;-77
2022/03/27 02:09:15;;;;;;;24.67;11.38;;;;;;;7.32;100.00;103094.28;5269005;28;20020;-78
2022/03/27 02:11:47;;;;;;;30.92;12.50;;;;;;;7.32;100.00;103096.09;5250722;28;20020;-77
2022/03/27 02:14:18;;;;;;;23.73;11.38;;;;;;;7.29;100.00;103094.47;5263189;28;20396;-77
2022/03/27 02:16:48;;;;;;;29.42;11.98;;;;;;;7.27;100.00;103097.22;5267122;28;20028;-78
2022/03/27 02:19:18;;;;;;;25.77;12.27;;;;;;;7.27;100.00;103099.03;5269262;28;20020;-77
2022/03/27 02:21:49;;;;;;;23.13;12.05;;;;;;;7.26;100.00;103097.31;5268946;28;20110;-77
2022/03/27 02:24:19;;;;;;;26.50;11.60;;;;;;;7.22;100.00;103098.44;5268467;28;20055;-77
2022/03/27 02:26:50;;;;;;;24.15;12.00;;;;;;;7.19;100.00;103099.50;5269096;28;20024;-78
2022/03/27 02:29:20;;;;;;;26.38;12.30;;;;;;;7.18;100.00;103095.09;5250374;28;20016;-78
2022/03/27 02:31:51;;;;;;;27.92;11.60;;;;;;;7.17;100.00;103095.16;5251037;28;20074;-78
2022/03/27 02:34:21;;;;;;;25.83;12.05;;;;;;;7.15;100.00;103091.75;5269215;28;20372;-77
2022/03/27 02:36:52;;;;;;;25.30;12.18;;;;;;;7.14;100.00;103098.03;5258848;28;20081;-77
2022/03/27 02:39:22;;;;;;;24.77;11.50;;;;;;;7.12;100.00;103092.75;5261033;28;20028;-77
2022/03/27 02:41:53;;;;;;;26.50;11.88;;;;;;;7.11;100.00;103091.06;5260275;28;20035;-77
2022/03/27 02:44:23;;;;;;;26.63;11.68;;;;;;;7.09;100.00;103095.63;5268867;28;20389;-77
2022/03/27 02:46:54;;;;;;;25.73;11.60;;;;;;;7.11;100.00;103092.88;5250865;28;20024;-77
2022/03/27 02:49:24;;;;;;;24.73;11.93;;;;;;;7.08;100.00;103093.03;5269666;28;20082;-77
2022/03/27 02:51:56;;;;;;;27.33;11.55;;;;;;;7.06;100.00;103094.94;5269720;28;20415;-78
2022/03/27 02:54:26;;;;;;;26.23;11.32;;;;;;;7.03;100.00;103092.44;5251846;28;20060;-77
2022/03/27 02:56:57;;;;;;;24.08;11.38;;;;;;;7.01;100.00;103088.06;5269652;28;20071;-77
2022/03/27 02:59:27;;;;;;;22.67;11.38;;;;;;;7.03;100.00;103087.09;5261931;28;20024;-78
2022/03/27 03:02:00;;;;;;;26.00;12.30;;;;;;;7.00;100.00;103089.00;5223279;28;20032;-78
2022/03/27 03:04:31;;;;;;;27.40;11.77;;;;;;;6.98;100.00;103085.56;5255256;28;20161;-78
2022/03/27 03:07:02;;;;;;;30.95;11.77;;;;;;;6.94;100.00;103083.16;5256396;28;20065;-77
2022/03/27 03:09:32;;;;;;;25.90;11.82;;;;;;;6.92;100.00;103088.56;5273561;28;20387;-78
2022/03/27 03:12:04;;;;;;;27.45;12.40;;;;;;;6.89;100.00;103083.44;5273463;28;20017;-78
2022/03/27 03:14:35;;;;;;;28.38;12.07;;;;;;;6.90;100.00;103078.97;5248297;28;20025;-78
2022/03/27 03:17:08;;;;;;;25.63;12.23;;;;;;;6.91;100.00;103086.00;5275588;28;20024;-78
2022/03/27 03:19:39;;;;;;;28.38;12.00;;;;;;;6.90;100.00;103086.97;5275631;28;20039;-78
2022/03/27 03:22:10;;;;;;;31.98;13.02;;;;;;;6.89;100.00;103093.25;5256578;28;20044;-78
2022/03/27 03:24:41;;;;;;;30.88;13.45;;;;;;;6.86;100.00;103078.25;5273828;28;20020;-78
2022/03/27 03:27:12;;;;;;;28.40;12.40;;;;;;;6.85;100.00;103084.56;5275421;28;20055;-78
2022/03/27 03:29:43;;;;;;;28.77;12.05;;;;;;;6.85;100.00;103089.03;5275286;28;20110;-78
2022/03/27 03:32:13;;;;;;;29.30;12.40;;;;;;;6.85;100.00;103086.38;5253199;28;20052;-78
2022/03/27 03:34:44;;;;;;;27.08;12.63;;;;;;;6.85;100.00;103087.22;5266913;28;20102;-79
2022/03/27 03:37:14;;;;;;;28.75;12.90;;;;;;;6.82;100.00;103087.38;5267315;28;20113;-80
2022/03/27 03:39:46;;;;;;;29.38;12.52;;;;;;;6.81;100.00;103092.81;5224586;28;20502;-77
2022/03/27 03:42:17;;;;;;;28.02;13.02;;;;;;;6.78;100.00;103084.97;5248164;28;20032;-77
2022/03/27 03:44:47;;;;;;;30.35;12.55;;;;;;;6.73;100.00;103078.13;5266298;28;20028;-77
2022/03/27 03:47:19;;;;;;;26.38;11.93;;;;;;;6.70;100.00;103078.28;5266889;28;20028;-77
2022/03/27 03:49:50;;;;;;;29.83;12.48;;;;;;;6.68;100.00;103076.66;5266751;28;20024;-77
2022/03/27 03:52:21;;;;;;;25.60;12.02;;;;;;;6.65;100.00;103074.16;5266248;28;20020;-77
2022/03/27 03:54:51;;;;;;;27.40;12.25;;;;;;;6.63;100.00;103062.72;5265943;28;20031;-77
2022/03/27 03:57:22;;;;;;;27.60;12.48;;;;;;;6.62;100.00;103069.84;5266664;28;20019;-77
2022/03/27 03:59:52;;;;;;;28.25;12.65;;;;;;;6.61;100.00;103069.94;5266654;28;20104;-76
2022/03/27 04:02:23;;;;;;;25.23;11.90;;;;;;;6.61;100.00;103076.13;5266448;28;20020;-76
2022/03/27 04:04:53;;;;;;;34.05;13.13;;;;;;;6.60;100.00;103076.22;5266155;28;20044;-76
2022/03/27 04:07:24;;;;;;;28.10;12.50;;;;;;;6.58;100.00;103075.47;5266394;28;20065;-76
2022/03/27 04:09:54;;;;;;;31.38;12.63;;;;;;;6.54;100.00;103066.75;5266489;28;20028;-77
2022/03/27 04:12:25;;;;;;;28.48;13.48;;;;;;;6.53;100.00;103069.53;5266391;28;20102;-77
2022/03/27 04:14:55;;;;;;;30.45;12.77;;;;;;;6.48;100.00;103072.44;5259784;28;20028;-76
2022/03/27 04:17:26;;;;;;;30.50;13.38;;;;;;;6.45;100.00;103073.47;5266158;28;20027;-77
2022/03/27 04:19:57;;;;;;;30.25;13.68;;;;;;;6.43;100.00;103064.69;5266151;28;20016;-77
2022/03/27 04:22:27;;;;;;;29.83;12.93;;;;;;;6.44;100.00;103076.22;5266234;28;20020;-76
2022/03/27 04:24:57;;;;;;;34.70;13.38;;;;;;;6.43;100.00;103063.84;5266117;28;20498;-76
2022/03/27 04:27:28;;;;;;;29.80;13.95;;;;;;;6.46;100.00;103066.31;5266237;28;20024;-76
2022/03/27 04:29:58;;;;;;;29.15;12.55;;;;;;;6.44;100.00;103065.56;5265857;28;20069;-77
2022/03/27 04:32:29;;;;;;;27.13;12.52;;;;;;;6.39;100.00;103072.94;5266387;28;20028;-77
2022/03/27 04:35:00;;;;;;;27.88;13.05;;;;;;;6.33;100.00;103063.47;5247760;28;20479;-78
2022/03/27 04:37:31;;;;;;;33.30;13.93;;;;;;;6.31;100.00;103065.34;5266246;28;20050;-80
2022/03/27 04:40:02;;;;;;;39.45;14.80;;;;;;;6.31;100.00;103072.50;5256061;28;20025;-76
2022/03/27 04:42:33;;;;;;;34.85;14.60;;;;;;;6.28;100.00;103065.53;5262788;28;20078;-76
2022/03/27 04:45:04;;;;;;;34.55;15.18;;;;;;;6.26;100.00;103072.75;5265533;28;20375;-76
2022/03/27 04:47:34;;;;;;;29.13;13.73;;;;;;;6.28;100.00;103075.34;5265860;28;20480;-77
2022/03/27 04:50:05;;;;;;;32.03;14.88;;;;;;;6.28;100.00;103078.88;5266115;28;20485;-77
2022/03/27 04:52:37;;;;;;;29.80;14.52;;;;;;;6.27;100.00;103073.59;5268338;28;20050;-77
2022/03/27 04:55:08;;;;;;;30.88;14.32;;;;;;;6.25;100.00;103080.84;5269222;28;20020;-77
2022/03/27 04:57:41;;;;;;;27.67;13.63;;;;;;;6.22;100.00;103085.41;5270108;28;20071;-76
2022/03/27 05:00:14;;;;;;;37.50;15.65;;;;;;;6.20;100.00;103075.75;5269536;28;20020;-76
2022/03/27 05:02:45;;;;;;;32.28;13.77;;;;;;;6.17;100.00;103076.75;5269884;28;20034;-76
2022/03/27 05:05:15;;;;;;;36.10;15.68;;;;;;;6.19;100.00;103085.56;5269130;28;20478;-76
2022/03/27 05:07:46;;;;;;;30.77;15.10;;;;;;;6.23;100.00;103080.94;5270044;28;20042;-76
2022/03/27 05:10:16;;;;;;;35.15;15.05;;;;;;;6.32;100.00;103090.19;5269702;28;20107;-76
2022/03/27 05:12:47;;;;;;;40.58;17.42;;;;;;;6.44;100.00;103095.75;5272666;28;20394;-77
2022/03/27 05:15:18;;;;;;;40.67;16.90;;;;;;;6.56;100.00;103091.53;5268223;28;20024;-78
2022/03/27 05:17:51;;;;;;;36.15;16.10;;;;;;;6.67;100.00;103093.59;5274672;28;20028;-77
2022/03/27 05:20:22;;;;;;;46.15;19.42;;;;;;;6.78;100.00;103090.31;5274058;28;20024;-78
2022/03/27 05:22:53;;;;;;;38.40;17.70;;;;;;;6.86;100.00;103094.28;5269603;28;20094;-77
2022/03/27 05:25:24;;;;;;;41.80;19.70;;;;;;;6.93;100.00;103095.66;5269037;28;20031;-77
2022/03/27 05:27:58;;;;;;;44.05;19.58;;;;;;;7.01;100.00;103106.72;5271445;28;20028;-78
2022/03/27 05:30:29;;;;;;;46.55;19.02;;;;;;;7.09;100.00;103100.13;5273498;28;20110;-78
2022/03/27 05:32:59;;;;;;;51.85;21.42;;;;;;;7.14;100.00;103103.38;5274696;28;20040;-77
2022/03/27 05:35:30;;;;;;;50.83;21.50;;;;;;;7.17;100.00;103105.84;5271624;28;20051;-78
2022/03/27 05:38:01;;;;;;;53.58;21.65;;;;;;;7.19;100.00;103110.16;5271362;28;20095;-77
2022/03/27 05:40:32;;;;;;;59.40;22.58;;;;;;;7.25;100.00;103106.28;5222904;28;20564;-76
2022/03/27 05:43:02;;;;;;;54.92;21.17;;;;;;;7.30;100.00;103112.19;5269311;28;20403;-78
2022/03/27 05:45:35;;;;;;;55.78;23.20;;;;;;;7.35;100.00;103112.78;5269556;28;20035;-77
2022/03/27 05:48:06;;;;;;;68.40;24.67;;;;;;;7.35;100.00;103119.94;5269370;28;20028;-76
2022/03/27 05:50:36;;;;;;;65.75;22.85;;;;;;;7.36;100.00;103119.84;5268824;28;20474;-75
2022/03/27 05:53:07;;;;;;;64.03;23.88;;;;;;;7.38;100.00;103120.63;5268920;28;20024;-76
2022/03/27 05:55:37;;;;;;;79.50;25.88;;;;;;;7.30;100.00;103125.56;5268271;28;20047;-77
2022/03/27 05:58:08;;;;;;;65.55;24.48;;;;;;;7.31;100.00;103129.09;5269122;28;20089;-76
2022/03/27 06:00:39;;;;;;;72.10;24.98;;;;;;;7.34;100.00;103127.09;5268903;28;20032;-77
2022/03/27 06:03:09;;;;;;;89.47;25.17;;;;;;;7.34;100.00;103124.44;5269342;28;20183;-77
2022/03/27 06:05:39;;;;;;;61.80;23.70;;;;;;;7.40;100.00;103131.22;5271017;28;20498;-78
2022/03/27 06:08:10;;;;;;;64.93;24.45;;;;;;;7.44;100.00;103138.09;5275196;28;20008;-78
2022/03/27 06:10:41;;;;;;;69.50;26.30;;;;;;;7.39;100.00;103134.84;5253693;28;20039;-76
2022/03/27 06:13:11;;;;;;;77.03;25.65;;;;;;;7.37;100.00;103136.72;5268551;28;20483;-76
2022/03/27 06:15:42;;;;;;;68.25;26.63;;;;;;;7.44;100.00;103143.44;5260824;28;20031;-77
2022/03/27 06:18:12;;;;;;;95.43;28.92;;;;;;;7.41;100.00;103146.28;5268207;28;20024;-76
2022/03/27 06:20:43;;;;;;;107.65;29.08;;;;;;;7.35;100.00;103139.50;5268154;28;20115;-76
2022/03/27 06:23:14;;;;;;;105.05;30.80;;;;;;;7.36;100.00;103143.88;5268311;28;20055;-76
2022/03/27 06:25:44;;;;;;;79.03;29.25;;;;;;;7.41;100.00;103149.81;5267895;28;20063;-76
2022/03/27 06:28:15;;;;;;;70.10;27.30;;;;;;;7.49;100.00;103149.38;5268222;28;20020;-76
2022/03/27 06:30:45;;;;;;;108.53;31.35;;;;;;;7.51;100.00;103150.13;5267725;28;20486;-76
2022/03/27 06:33:16;;;;;;;89.03;27.80;;;;;;;7.40;100.00;103145.44;5268296;28;20110;-76
2022/03/27 06:35:46;;;;;;;87.07;29.10;;;;;;;7.38;100.00;103155.34;5267627;28;20028;-76
2022/03/27 06:38:17;;;;;;;104.78;29.20;;;;;;;7.35;100.00;103158.19;5250013;28;20472;-76
2022/03/27 06:40:48;;;;;;;91.80;27.90;;;;;;;7.29;100.00;103161.22;5254178;28;20038;-77
2022/03/27 06:43:19;;;;;;;82.32;28.25;;;;;;;7.37;100.00;103153.59;5267792;28;20020;-76
2022/03/27 06:45:50;;;;;;;92.85;29.85;;;;;;;7.43;100.00;103157.72;5266841;28;20016;-76
2022/03/27 06:48:20;;;;;;;96.43;30.35;;;;;;;7.46;100.00;103157.56;5267817;28;20399;-76
2022/03/27 06:50:51;;;;;;;100.88;30.83;;;;;;;7.48;100.00;103169.00;5267593;28;20032;-76
2022/03/27 06:53:24;;;;;;;117.22;32.65;;;;;;;7.59;100.00;103165.72;5268029;28;20107;-76
2022/03/27 06:55:54;;;;;;;102.50;30.55;;;;;;;7.70;100.00;103168.63;5266761;28;20036;-76
2022/03/27 06:58:25;;;;;;;98.35;29.00;;;;;;;7.74;100.00;103168.34;5267617;28;20024;-76
2022/03/27 07:03:44;;;;;;;103.90;31.35;;;;;;;7.77;100.00;103161.94;5267549;28;20052;-76
2022/03/27 07:06:16;;;;;;;116.53;31.83;;;;;;;7.80;100.00;103161.78;5266907;28;20066;-76
2022/03/27 07:08:47;;;;;;;103.78;29.23;;;;;;;7.79;100.00;103162.72;5267837;28;20052;-77
2022/03/27 07:11:18;;;;;;;98.53;31.48;;;;;;;7.88;100.00;103162.19;5269738;28;20035;-77
2022/03/27 07:13:48;;;;;;;95.82;32.50;;;;;;;7.91;100.00;103169.16;5267202;28;20016;-77
2022/03/27 07:16:19;;;;;;;88.30;28.83;;;;;;;7.89;100.00;103160.38;5261500;28;20024;-77
2022/03/27 07:18:49;;;;;;;114.20;31.08;;;;;;;7.93;100.00;103161.88;5268411;28;20115;-77
2022/03/27 07:21:20;;;;;;;112.65;32.25;;;;;;;7.93;100.00;103164.56;5267706;28;20051;-77
2022/03/27 07:23:50;;;;;;;106.13;31.42;;;;;;;7.94;100.00;103153.78;5268686;28;20102;-77
2022/03/27 07:26:22;;;;;;;110.03;33.22;;;;;;;7.89;100.00;103158.56;5249787;28;20495;-77
2022/03/27 07:28:52;;;;;;;107.63;32.70;;;;;;;7.96;100.00;103153.69;5268944;28;20397;-77
2022/03/27 07:31:23;;;;;;;116.05;32.80;;;;;;;8.02;100.00;103153.31;5268579;28;20028;-77
2022/03/27 07:33:55;;;;;;;103.97;31.70;;;;;;;8.13;100.00;103155.31;5269082;28;20550;-78
2022/03/27 07:36:25;;;;;;;88.07;31.10;;;;;;;8.20;100.00;103151.34;5269619;28;20112;-79
2022/03/27 07:38:56;;;;;;;105.40;30.20;;;;;;;8.28;100.00;103151.69;5269160;28;20094;-78
2022/03/27 07:41:26;;;;;;;90.47;30.58;;;;;;;8.36;100.00;103157.47;5256440;28;20487;-77
2022/03/27 07:43:57;;;;;;;95.15;29.10;;;;;;;8.42;100.00;103153.56;5270863;28;20093;-78
2022/03/27 07:46:27;;;;;;;102.10;31.58;;;;;;;8.41;100.00;103158.06;5269594;28;20107;-78
2022/03/27 07:48:58;;;;;;;96.30;31.08;;;;;;;8.38;100.00;103174.28;5240241;28;20454;-78
2022/03/27 07:51:28;;;;;;;98.40;29.88;;;;;;;8.35;100.00;103166.44;5271022;28;20078;-78
2022/03/27 07:53:59;;;;;;;95.60;30.17;;;;;;;8.26;100.00;103167.84;5269427;28;20044;-78
2022/03/27 07:56:29;;;;;;;97.65;28.15;;;;;;;8.27;100.00;103168.72;5269734;28;20024;-77
2022/03/27 07:59:00;;;;;;;97.60;29.15;;;;;;;8.18;100.00;103166.59;5270280;28;20028;-78
2022/03/27 08:01:30;;;;;;;128.68;30.55;;;;;;;8.12;100.00;103169.66;5271281;28;20499;-81
2022/03/27 08:04:01;;;;;;;103.95;29.27;;;;;;;8.11;100.00;103165.25;5254980;28;20049;-77
2022/03/27 08:06:36;;;;;;;99.85;30.60;;;;;;;8.14;100.00;103160.59;5266372;28;20077;-77
2022/03/27 08:09:06;;;;;;;112.43;32.33;;;;;;;8.24;100.00;103161.75;5268594;28;20043;-77
2022/03/27 08:11:41;;;;;;;104.57;31.77;;;;;;;8.39;100.00;103161.78;5269057;28;20028;-77
2022/03/27 08:14:12;;;;;;;92.25;32.25;;;;;;;8.51;100.00;103171.72;5263707;28;20024;-77
2022/03/27 08:16:42;;;;;;;117.65;32.45;;;;;;;8.51;100.00;103158.34;5266541;28;20032;-77
2022/03/27 08:19:13;;;;;;;91.10;30.88;;;;;;;8.62;100.00;103160.34;5268414;28;20016;-77
2022/03/27 08:21:43;;;;;;;85.55;30.52;;;;;;;8.58;100.00;103162.34;5269433;28;20032;-77
2022/03/27 08:24:13;;;;;;;94.53;32.47;;;;;;;8.67;100.00;103152.88;5268344;28;20601;-77
2022/03/27 08:29:34;;;;;;;91.82;30.52;;;;;;;8.61;100.00;103161.28;5271176;28;20016;-77
2022/03/27 08:32:07;;;;;;;89.53;31.67;;;;;;;8.62;100.00;103165.69;5253904;28;20028;-77
2022/03/27 08:34:39;;;;;;;105.03;33.83;;;;;;;8.64;100.00;103163.78;5257733;28;20567;-77
2022/03/27 08:37:12;;;;;;;105.93;31.83;;;;;;;8.67;100.00;103166.25;5258253;28;20081;-77
2022/03/27 08:39:45;;;;;;;96.13;30.38;;;;;;;8.66;100.00;103168.06;5237072;28;20107;-77
2022/03/27 08:42:19;;;;;;;98.57;32.15;;;;;;;8.75;100.00;103161.28;5263079;28;20082;-77
2022/03/27 08:44:50;;;;;;;98.65;30.30;;;;;;;8.81;100.00;103168.91;5260640;28;20032;-78
2022/03/27 08:47:24;;;;;;;93.63;31.50;;;;;;;8.70;100.00;103168.75;5254691;28;20016;-79
2022/03/27 08:50:26;;;;;;;82.22;25.75;;;;;;;8.64;100.00;103169.13;5254811;28;20031;-79
2022/03/27 08:52:59;;;;;;;97.10;28.13;;;;;;;8.68;100.00;103176.00;5254832;28;20778;-79
2022/03/27 08:56:02;;;;;;;92.30;29.33;;;;;;;8.51;100.00;103171.72;5253969;28;20027;-79
2022/03/27 08:58:36;;;;;;;93.53;27.70;;;;;;;8.63;100.00;103178.09;5270434;28;20467;-79
2022/03/27 09:01:07;;;;;;;85.45;28.63;;;;;;;8.72;100.00;103174.84;5271638;28;20361;-79
2022/03/27 09:03:38;;;;;;;89.18;29.92;;;;;;;8.73;100.00;103173.88;5272333;28;20019;-79
2022/03/27 09:06:09;;;;;;;98.07;29.67;;;;;;;8.52;100.00;103176.97;5253284;28;20120;-79
2022/03/27 09:08:39;;;;;;;80.00;28.77;;;;;;;8.53;100.00;103175.13;5254661;28;20027;-79
2022/03/27 09:11:30;;;;;;;89.20;30.17;;;;;;;8.82;100.00;103174.16;5253781;28;20024;-79
2022/03/27 09:14:03;;;;;;;89.43;28.83;;;;;;;8.98;100.00;103171.34;5246384;28;20505;-79
2022/03/27 09:16:59;;;;;;;83.57;28.33;;;;;;;9.14;100.00;103176.59;5271306;28;20543;-79
2022/03/27 09:19:31;;;;;;;;;;;;;;;9.28;100.00;103165.81;5272604;28;20020;-80
2022/03/27 09:22:13;;;;;;;83.72;28.63;;;;;;;9.40;100.00;103171.34;5272204;28;19915;-80
2022/03/27 09:24:47;;;;;;;79.72;27.33;;;;;;;9.46;100.00;103173.59;5254538;28;20074;-80
2022/03/27 09:27:29;;;;;;;76.82;28.23;;;;;;;9.59;100.00;103163.78;5273350;28;20027;-80
2022/03/27 09:30:06;;;;;;;72.28;25.90;;;;;;;9.57;100.00;103171.06;5272256;28;20024;-80
2022/03/27 09:32:39;;;;;;;74.22;27.02;;;;;;;9.61;100.00;103172.56;5255056;28;20024;-80
2022/03/27 09:35:12;;;;;;;78.30;28.13;;;;;;;9.69;100.00;103174.72;5271690;28;20422;-80
2022/03/27 09:37:46;;;;;;;82.20;29.17;;;;;;;9.74;100.00;103167.22;5254782;28;20031;-80
2022/03/27 09:40:17;;;;;;;77.05;27.30;;;;;;;9.73;100.00;103173.56;5258879;28;20021;-80
2022/03/27 09:43:08;;;;;;;75.40;27.55;;;;;;;9.75;100.00;103167.13;5253050;28;20035;-80
2022/03/27 09:45:53;;;;;;;76.38;27.17;;;;;;;9.66;100.00;103169.59;5271041;28;20020;-80
2022/03/27 09:48:24;;;;;;;82.20;28.38;;;;;;;9.43;100.00;103169.28;5271757;28;20430;-80
2022/03/27 09:50:59;;;;;;;72.13;26.30;;;;;;;9.34;100.00;103162.75;5271155;28;20046;-80
2022/03/27 09:53:32;;;;;;;71.43;25.95;;;;;;;9.26;100.00;103161.53;5253852;28;20031;-79
2022/03/27 09:56:02;;;;;;;88.30;29.35;;;;;;;9.30;100.00;103161.22;5270701;28;20065;-79
2022/03/27 09:58:36;;;;;;;87.07;28.73;;;;;;;9.12;100.00;103166.94;5240137;28;20025;-79
2022/03/27 10:01:08;;;;;;;88.57;28.88;;;;;;;9.12;100.00;103159.75;5252994;28;20028;-79
2022/03/27 10:04:14;;;;;;;88.57;29.00;;;;;;;9.17;100.00;103151.41;5270834;28;20063;-79
2022/03/27 10:06:45;;;;;;;84.00;26.98;;;;;;;9.26;100.00;103159.69;5253122;28;20035;-79
2022/03/27 10:09:15;;;;;;;88.03;28.65;;;;;;;9.30;100.00;103157.69;5272607;28;20402;-79
2022/03/27 10:11:50;;;;;;;85.43;27.85;;;;;;;9.17;100.00;103157.63;5270396;28;20039;-79
2022/03/27 10:14:21;;;;;;;78.97;27.13;;;;;;;9.41;100.00;103162.34;5226890;28;20461;-79
2022/03/27 10:16:51;;;;;;;79.63;25.85;;;;;;;9.52;100.00;103157.97;5258698;28;20055;-79
2022/03/27 10:19:39;;;;;;;77.70;28.02;;;;;;;9.43;100.00;103155.88;5276814;28;20360;-79
2022/03/27 10:22:12;;;;;;;81.43;27.17;;;;;;;9.43;100.00;103153.22;5257757;28;20036;-79
2022/03/27 10:24:45;;;;;;;76.70;25.05;;;;;;;9.60;100.00;103154.78;5275314;28;20027;-79
2022/03/27 10:27:18;;;;;;;69.53;24.80;;;;;;;9.54;100.00;103155.19;5258392;28;20042;-79
2022/03/27 10:29:50;;;;;;;75.85;26.00;;;;;;;9.79;100.00;103154.38;5257854;28;20045;-79
2022/03/27 10:32:20;;;;;;;73.00;24.55;;;;;;;9.51;100.00;103147.34;5253194;28;20108;-79
2022/03/27 10:35:13;;;;;;;77.18;25.48;;;;;;;9.66;100.00;103153.50;5269408;28;20103;-79
2022/03/27 10:38:03;;;;;;;66.93;25.60;;;;;;;9.71;100.00;103141.50;5252091;28;20074;-79
2022/03/27 10:40:40;;;;;;;79.50;26.70;;;;;;;9.93;100.00;103145.38;5238216;28;20021;-79
2022/03/27 10:43:34;;;;;;;76.50;28.10;;;;;;;10.03;100.00;103141.94;5269593;28;20032;-79
2022/03/27 10:46:19;;;;;;;76.07;26.02;;;;;;;10.11;100.00;103146.78;5269096;28;20087;-79
2022/03/27 10:48:52;;;;;;;67.53;24.77;;;;;;;10.05;100.00;103140.03;5251349;28;20023;-79
2022/03/27 10:51:39;;;;;;;63.95;24.75;;;;;;;9.82;100.00;103143.44;5268857;28;20450;-79
2022/03/27 10:54:14;;;;;;;61.50;24.90;;;;;;;9.73;100.00;103139.56;5268752;28;20059;-80
2022/03/27 10:56:48;;;;;;;64.57;24.20;;;;;;;9.64;100.00;103139.31;5251640;28;20399;-80
2022/03/27 10:59:22;;;;;;;68.60;24.35;;;;;;;9.72;100.00;103143.22;5251446;28;20393;-80
2022/03/27 11:01:56;;;;;;;64.57;24.80;;;;;;;9.78;100.00;103140.09;5269049;28;20502;-80
2022/03/27 11:04:38;;;;;;;65.45;24.90;;;;;;;9.62;100.00;103142.13;5268463;28;20081;-80
2022/03/27 11:07:28;;;;;;;72.32;25.92;;;;;;;9.70;100.00;103138.94;5251072;28;20035;-80
2022/03/27 11:09:58;;;;;;;70.32;25.35;;;;;;;9.76;100.00;103136.69;5268483;28;20508;-80
2022/03/27 11:12:30;;;;;;;64.95;24.98;;;;;;;9.91;100.00;103137.44;5268883;28;20106;-80
2022/03/27 11:15:03;;;;;;;63.15;25.77;;;;;;;10.02;100.00;103134.88;5261735;28;20036;-80
2022/03/27 11:17:36;;;;;;;56.08;24.35;;;;;;;10.11;100.00;103128.00;5250527;28;20028;-79
2022/03/27 11:20:12;;;;;;;62.70;24.17;;;;;;;10.29;100.00;103133.91;5268193;28;20063;-79
2022/03/27 11:22:43;;;;;;;63.13;25.63;;;;;;;10.19;100.00;103124.78;5268124;28;20031;-79
2022/03/27 11:25:45;;;;;;;60.78;25.27;;;;;;;10.09;100.00;103121.88;5267920;28;20024;-79
2022/03/27 11:28:17;;;;;;;62.33;24.70;;;;;;;10.28;100.00;103125.03;5268295;28;20383;-79
2022/03/27 11:30:48;;;;;;;61.22;24.77;;;;;;;10.43;100.00;103116.84;5267304;28;20024;-79
2022/03/27 11:33:29;;;;;;;61.83;25.40;;;;;;;10.61;100.00;103115.53;5267902;28;20028;-79
2022/03/27 11:36:18;;;;;;;64.93;25.52;;;;;;;10.85;100.00;103113.75;5267023;28;20491;-79
2022/03/27 11:39:07;;;;;;;59.15;24.15;;;;;;;11.00;100.00;103106.38;5267287;28;20035;-79
2022/03/27 11:41:53;;;;;;;60.67;25.52;;;;;;;10.72;100.00;103106.69;5239521;28;20059;-79